Time;durP1;ratioP1;P1;durP2;ratioP2;P2;SDS_P1;SDS_P2;PMS_P1;PMS_P2;Temp;Humidity;BMP_temperature;BMP_pressure;BME280_temperature;BME280_humidity;BME280_pressure;Samples;Min_cycle;Max_cycle;Signal;HPM_P1;HPM_P2
2023/11/24 00:01:58;;;;;;;2.60;2.40;;;10.10;99.90;;;;;;5092246;28;20623;-55
2023/11/24 00:04:24;;;;;;;3.63;2.17;;;10.10;99.90;;;;;;5092109;28;20024;-51
2023/11/24 00:06:51;;;;;;;4.57;2.08;;;10.10;99.90;;;;;;5091764;28;20027;-57
2023/11/24 00:09:16;;;;;;;1.85;1.75;;;10.10;99.90;;;;;;5091665;28;20027;-56
2023/11/24 00:11:43;;;;;;;1.95;1.48;;;10.20;99.90;;;;;;5073520;28;20398;-53
2023/11/24 00:14:08;;;;;;;1.92;1.83;;;10.20;99.90;;;;;;5091576;28;20016;-58
2023/11/24 00:16:38;;;;;;;3.10;1.63;;;10.20;99.90;;;;;;5091293;28;20116;-58
2023/11/24 00:19:04;;;;;;;1.65;1.55;;;10.30;99.90;;;;;;5091669;28;20023;-55
2023/11/24 00:21:30;;;;;;;1.40;1.40;;;10.30;99.90;;;;;;5091717;28;20028;-55
2023/11/24 00:23:55;;;;;;;1.55;1.45;;;10.40;99.90;;;;;;5091245;28;20024;-55
2023/11/24 00:26:21;;;;;;;1.58;1.40;;;10.30;99.90;;;;;;5091411;28;20039;-57
2023/11/24 00:28:47;;;;;;;1.55;1.45;;;10.30;99.90;;;;;;5073859;28;20044;-56
2023/11/24 00:31:13;;;;;;;1.17;1.17;;;10.40;99.90;;;;;;5089668;28;20103;-57
2023/11/24 00:33:38;;;;;;;1.55;1.52;;;10.40;99.90;;;;;;5070096;28;20032;-52
2023/11/24 00:36:06;;;;;;;6.00;1.63;;;10.40;99.90;;;;;;5088268;28;20032;-52
2023/11/24 00:38:31;;;;;;;1.63;1.52;;;10.30;99.90;;;;;;5088305;28;20028;-55
2023/11/24 00:40:58;;;;;;;1.50;1.40;;;10.30;99.90;;;;;;5088372;28;20077;-50
2023/11/24 00:43:25;;;;;;;1.65;1.55;;;10.30;99.90;;;;;;5088318;28;20024;-53
2023/11/24 00:45:50;;;;;;;1.73;1.30;;;10.30;99.90;;;;;;5088227;28;20024;-51
2023/11/24 00:48:16;;;;;;;1.38;1.27;;;10.30;99.90;;;;;;5070424;28;20540;-54
2023/11/24 00:50:42;;;;;;;1.35;1.25;;;10.40;99.90;;;;;;5088542;28;20055;-54
2023/11/24 00:53:07;;;;;;;1.80;1.70;;;10.40;99.90;;;;;;5088012;28;20047;-52
2023/11/24 00:55:33;;;;;;;3.10;1.27;;;10.30;99.90;;;;;;5088241;28;20494;-52
2023/11/24 00:57:58;;;;;;;0.90;0.90;;;10.30;99.90;;;;;;5070113;28;20028;-54
2023/11/24 01:00:24;;;;;;;4.88;3.90;;;10.30;99.90;;;;;;5088313;28;20172;-57
2023/11/24 01:02:50;;;;;;;17.30;9.63;;;10.30;99.90;;;;;;5087954;28;20031;-52
2023/11/24 01:05:20;;;;;;;1.13;1.00;;;10.30;99.90;;;;;;5088755;28;20032;-51
2023/11/24 01:07:46;;;;;;;1.95;1.75;;;10.30;99.90;;;;;;5088311;28;20017;-52
2023/11/24 01:10:12;;;;;;;1.65;1.23;;;10.30;99.90;;;;;;5089354;28;20028;-51
2023/11/24 01:12:38;;;;;;;0.80;0.80;;;10.20;99.90;;;;;;5089355;28;20386;-56
2023/11/24 01:15:06;;;;;;;1.95;0.80;;;10.20;99.90;;;;;;5091188;28;20012;-51
2023/11/24 01:17:31;;;;;;;2.67;1.30;;;10.20;99.90;;;;;;5091075;28;20426;-54
2023/11/24 01:19:57;;;;;;;1.08;1.08;;;10.10;99.90;;;;;;5091067;28;20028;-55
2023/11/24 01:22:24;;;;;;;0.85;0.85;;;10.10;99.90;;;;;;5090791;28;20024;-55
2023/11/24 01:24:51;;;;;;;2.60;1.00;;;10.10;99.90;;;;;;5090939;28;20077;-56
2023/11/24 01:27:18;;;;;;;1.23;1.05;;;10.10;99.90;;;;;;5090869;28;20028;-53
2023/11/24 01:29:43;;;;;;;2.05;1.00;;;10.10;99.90;;;;;;5092814;28;20104;-54
2023/11/24 01:32:09;;;;;;;0.70;0.70;;;10.10;99.90;;;;;;5094562;28;20059;-54
2023/11/24 01:34:34;;;;;;;0.70;0.70;;;10.10;99.90;;;;;;5076375;28;20031;-50
2023/11/24 01:37:00;;;;;;;1.60;1.10;;;10.10;99.90;;;;;;5094492;28;20040;-55
2023/11/24 01:39:26;;;;;;;0.80;0.75;;;10.10;99.90;;;;;;5094581;28;20039;-52
2023/11/24 01:41:52;;;;;;;7.78;1.15;;;10.20;99.90;;;;;;5094398;28;20211;-54
2023/11/24 01:44:18;;;;;;;0.60;0.60;;;10.30;99.90;;;;;;5094627;28;20114;-52
2023/11/24 01:46:44;;;;;;;0.80;0.80;;;10.40;99.90;;;;;;5076309;28;20020;-54
2023/11/24 01:49:10;;;;;;;0.88;0.88;;;10.50;99.90;;;;;;5094372;28;20073;-54
2023/11/24 01:51:36;;;;;;;1.10;1.10;;;10.50;99.90;;;;;;5094430;28;20091;-54
2023/11/24 01:54:03;;;;;;;0.90;0.90;;;10.60;99.90;;;;;;5076017;28;20024;-55
2023/11/24 01:56:30;;;;;;;0.70;0.70;;;10.60;99.90;;;;;;5094508;28;20396;-56
2023/11/24 01:58:57;;;;;;;1.35;0.77;;;10.70;99.90;;;;;;5094360;28;20460;-54
2023/11/24 02:01:24;;;;;;;0.80;0.80;;;10.70;99.90;;;;;;5075972;28;20050;-56
2023/11/24 02:03:50;;;;;;;0.70;0.70;;;10.70;99.90;;;;;;5075656;28;20027;-52
2023/11/24 02:06:16;;;;;;;1.42;0.80;;;10.70;99.90;;;;;;5093980;28;20027;-54
2023/11/24 02:08:42;;;;;;;3.15;0.88;;;10.70;99.90;;;;;;5093945;28;20077;-55
2023/11/24 02:11:08;;;;;;;5.55;1.55;;;10.70;99.90;;;;;;5093674;28;20024;-54
2023/11/24 02:13:33;;;;;;;3.03;1.15;;;10.60;99.90;;;;;;5093586;28;20039;-56
2023/11/24 02:15:59;;;;;;;2.60;1.17;;;10.40;99.90;;;;;;5093735;28;20024;-53
2023/11/24 02:18:24;;;;;;;4.40;1.20;;;10.30;99.90;;;;;;5093883;28;20028;-55
2023/11/24 02:20:50;;;;;;;8.38;2.22;;;10.10;99.90;;;;;;5094369;28;20039;-54
2023/11/24 02:23:16;;;;;;;5.15;2.28;;;10.00;99.90;;;;;;5093564;28;20053;-55
2023/11/24 02:25:42;;;;;;;7.13;1.83;;;9.90;99.90;;;;;;5093651;28;20027;-55
2023/11/24 02:28:08;;;;;;;6.72;2.28;;;9.80;99.90;;;;;;5075628;28;20028;-54
2023/11/24 02:30:33;;;;;;;6.57;1.63;;;9.80;99.90;;;;;;5075581;28;20414;-52
2023/11/24 02:32:59;;;;;;;6.25;2.22;;;9.60;99.90;;;;;;5093707;28;20091;-51
2023/11/24 02:35:26;;;;;;;7.05;2.10;;;9.70;99.90;;;;;;5075493;28;20024;-54
2023/11/24 02:37:51;;;;;;;8.65;1.90;;;9.60;99.90;;;;;;5093511;28;20170;-54
2023/11/24 02:40:17;;;;;;;6.45;1.58;;;9.60;99.90;;;;;;5093208;28;20043;-52
2023/11/24 02:42:43;;;;;;;12.93;2.85;;;9.60;99.90;;;;;;5074967;28;20420;-49
2023/11/24 02:45:10;;;;;;;9.07;2.83;;;9.60;99.90;;;;;;5093668;28;20498;-54
2023/11/24 02:47:36;;;;;;;12.73;1.95;;;9.60;99.90;;;;;;5093110;28;20028;-53
2023/11/24 02:50:02;;;;;;;10.57;1.73;;;9.50;99.90;;;;;;5093424;28;20375;-52
2023/11/24 02:52:28;;;;;;;10.60;2.38;;;9.50;99.90;;;;;;5093651;28;20024;-54
2023/11/24 02:54:54;;;;;;;7.10;1.90;;;9.50;99.90;;;;;;5093237;28;20107;-54
2023/11/24 02:57:19;;;;;;;11.50;2.10;;;9.50;99.90;;;;;;5093070;28;20031;-53
2023/11/24 02:59:45;;;;;;;6.68;1.95;;;9.50;99.90;;;;;;5074781;28;20024;-54
2023/11/24 03:02:11;;;;;;;10.57;1.73;;;9.40;99.90;;;;;;5074536;28;20036;-53
2023/11/24 03:04:37;;;;;;;11.73;2.40;;;9.40;99.90;;;;;;5092999;28;20081;-54
2023/11/24 03:07:04;;;;;;;7.18;1.67;;;9.50;99.90;;;;;;5074572;28;20028;-56
2023/11/24 03:09:29;;;;;;;12.80;2.33;;;9.50;99.90;;;;;;5092792;28;20019;-55
2023/11/24 03:11:55;;;;;;;6.65;1.63;;;9.50;99.90;;;;;;5092247;28;20099;-54
2023/11/24 03:14:22;;;;;;;7.82;1.98;;;9.40;99.90;;;;;;5092779;28;20039;-53
2023/11/24 03:16:48;;;;;;;9.23;2.45;;;9.30;99.90;;;;;;5092647;28;20024;-56
2023/11/24 03:19:14;;;;;;;4.53;1.65;;;9.30;99.90;;;;;;5092769;28;20527;-55
2023/11/24 03:21:40;;;;;;;11.57;1.90;;;9.20;99.90;;;;;;5092562;28;20035;-55
2023/11/24 03:24:06;;;;;;;10.45;2.47;;;9.00;99.90;;;;;;5092514;28;20024;-55
2023/11/24 03:26:32;;;;;;;13.02;2.05;;;9.10;99.90;;;;;;5074180;28;20043;-53
2023/11/24 03:28:58;;;;;;;11.95;2.30;;;9.10;99.90;;;;;;5074418;28;20054;-55
2023/11/24 03:31:23;;;;;;;8.27;3.35;;;9.10;99.90;;;;;;5074640;28;20016;-50
2023/11/24 03:33:49;;;;;;;11.02;2.33;;;9.20;99.90;;;;;;5092364;28;20020;-52
2023/11/24 03:36:15;;;;;;;12.98;2.45;;;9.20;99.90;;;;;;5092285;28;20028;-52
2023/11/24 03:38:40;;;;;;;15.43;2.65;;;9.20;99.90;;;;;;5074163;28;20393;-51
2023/11/24 03:41:06;;;;;;;13.50;2.63;;;9.10;99.90;;;;;;5093032;28;20028;-54
2023/11/24 03:43:31;;;;;;;6.43;1.98;;;9.10;99.90;;;;;;5091931;28;20028;-51
2023/11/24 03:45:57;;;;;;;14.20;3.22;;;9.00;99.90;;;;;;5092078;28;20031;-54
2023/11/24 03:48:22;;;;;;;14.63;3.72;;;9.00;99.90;;;;;;5092277;28;20344;-53
2023/11/24 03:50:49;;;;;;;15.73;2.95;;;9.10;99.90;;;;;;5092197;28;20024;-54
2023/11/24 03:53:15;;;;;;;25.73;4.30;;;9.10;99.90;;;;;;5091197;28;20513;-53
2023/11/24 03:55:40;;;;;;;16.73;4.10;;;9.10;99.90;;;;;;5091864;28;20043;-52
2023/11/24 03:58:06;;;;;;;23.48;4.00;;;8.70;99.90;;;;;;5092099;28;20028;-54
2023/11/24 04:00:31;;;;;;;12.98;3.45;;;9.00;99.90;;;;;;5092151;28;20028;-51
2023/11/24 04:02:57;;;;;;;10.70;3.70;;;9.10;99.90;;;;;;5091667;28;20355;-57
2023/11/24 04:05:23;;;;;;;16.45;3.20;;;9.10;99.90;;;;;;5091999;28;20032;-53
2023/11/24 04:07:48;;;;;;;20.55;3.65;;;9.10;99.90;;;;;;5091671;28;20068;-54
2023/11/24 04:10:14;;;;;;;21.27;4.45;;;9.10;99.90;;;;;;5091482;28;20108;-54
2023/11/24 04:12:39;;;;;;;18.65;4.07;;;9.00;99.90;;;;;;5091477;28;20020;-52
2023/11/24 04:15:06;;;;;;;17.67;3.40;;;9.00;99.90;;;;;;5073561;28;20047;-50
2023/11/24 04:17:32;;;;;;;14.95;3.72;;;9.10;99.90;;;;;;5073563;28;20038;-55
2023/11/24 04:19:57;;;;;;;18.02;4.30;;;9.10;99.90;;;;;;5091629;28;20020;-56
2023/11/24 04:22:23;;;;;;;15.18;3.50;;;9.10;99.90;;;;;;5091238;28;20035;-54
2023/11/24 04:24:48;;;;;;;18.17;4.13;;;9.10;99.90;;;;;;5091591;28;20028;-52
2023/11/24 04:27:14;;;;;;;13.43;4.07;;;9.10;99.90;;;;;;5091324;28;20093;-51
2023/11/24 04:29:40;;;;;;;17.70;3.70;;;9.10;99.90;;;;;;5091913;28;20039;-51
2023/11/24 04:32:06;;;;;;;18.05;4.63;;;9.10;99.90;;;;;;5091316;28;20024;-50
2023/11/24 04:34:32;;;;;;;18.25;3.72;;;9.10;99.90;;;;;;5091641;28;20081;-53
2023/11/24 04:36:59;;;;;;;18.92;4.30;;;9.10;99.90;;;;;;5091164;28;20036;-52
2023/11/24 04:39:25;;;;;;;25.88;4.45;;;9.10;99.90;;;;;;5092046;28;20103;-50
2023/11/24 04:41:52;;;;;;;17.85;4.47;;;9.00;99.90;;;;;;5091189;28;20116;-52
2023/11/24 04:44:17;;;;;;;12.18;4.13;;;9.00;99.90;;;;;;5091509;28;20016;-54
2023/11/24 04:46:43;;;;;;;17.77;4.88;;;8.90;99.90;;;;;;5091201;28;20027;-52
2023/11/24 04:49:08;;;;;;;22.05;4.88;;;8.90;99.90;;;;;;5091391;28;20034;-53
2023/11/24 04:51:34;;;;;;;12.82;3.53;;;8.80;99.90;;;;;;5091662;28;20107;-52
2023/11/24 04:54:02;;;;;;;21.55;4.93;;;8.80;99.90;;;;;;5091393;28;20475;-56
2023/11/24 04:56:28;;;;;;;14.90;3.40;;;8.70;99.90;;;;;;5091412;28;20025;-54
2023/11/24 04:58:54;;;;;;;16.55;3.65;;;8.70;99.90;;;;;;5091382;28;20077;-54
2023/11/24 05:01:19;;;;;;;21.83;5.90;;;8.70;99.90;;;;;;5091245;28;20445;-52
2023/11/24 05:03:48;;;;;;;10.95;3.22;;;8.60;99.90;;;;;;5093110;28;20032;-49
2023/11/24 05:06:14;;;;;;;22.90;5.22;;;8.60;99.90;;;;;;5095112;28;20076;-50
2023/11/24 05:08:39;;;;;;;14.30;4.38;;;8.50;99.90;;;;;;5077100;28;20159;-54
2023/11/24 05:11:05;;;;;;;18.35;4.47;;;8.50;99.90;;;;;;5076947;28;20095;-52
2023/11/24 05:13:31;;;;;;;16.05;4.13;;;8.40;99.90;;;;;;5094884;28;20024;-51
2023/11/24 05:15:59;;;;;;;20.52;4.15;;;8.40;99.90;;;;;;5076966;28;20026;-56
2023/11/24 05:18:25;;;;;;;16.08;3.65;;;8.40;99.90;;;;;;5076739;28;20025;-55
2023/11/24 05:20:51;;;;;;;22.50;5.90;;;8.40;99.90;;;;;;5095020;28;20036;-54
2023/11/24 05:23:17;;;;;;;20.85;5.60;;;8.40;99.90;;;;;;5094842;28;20475;-56
2023/11/24 05:25:42;;;;;;;20.48;4.93;;;8.40;99.90;;;;;;5095000;28;20031;-54
2023/11/24 05:28:09;;;;;;;12.73;4.32;;;8.40;99.90;;;;;;5094903;28;20028;-55
2023/11/24 05:30:34;;;;;;;16.60;4.63;;;8.40;99.90;;;;;;5095109;28;20486;-54
2023/11/24 05:33:03;;;;;;;17.50;3.45;;;8.40;99.90;;;;;;5094890;28;20031;-54
2023/11/24 05:35:29;;;;;;;14.60;4.35;;;8.40;99.90;;;;;;5095032;28;20020;-55
2023/11/24 05:37:55;;;;;;;13.00;3.72;;;8.40;99.90;;;;;;5094679;28;20039;-55
2023/11/24 05:40:20;;;;;;;14.98;3.70;;;8.40;99.90;;;;;;5076657;28;20032;-52
2023/11/24 05:42:46;;;;;;;14.23;3.38;;;8.30;99.90;;;;;;5094530;28;20206;-55
2023/11/24 05:45:12;;;;;;;12.20;3.67;;;8.30;99.90;;;;;;5094712;28;20484;-50
2023/11/24 05:47:38;;;;;;;14.57;3.42;;;8.30;99.90;;;;;;5094283;28;20024;-55
2023/11/24 05:50:07;;;;;;;17.13;3.47;;;8.40;99.90;;;;;;5094612;28;20065;-51
2023/11/24 05:52:33;;;;;;;17.42;5.05;;;8.40;99.90;;;;;;5094039;28;20338;-56
2023/11/24 05:55:02;;;;;;;13.38;3.72;;;8.40;99.90;;;;;;5094380;28;20043;-53
2023/11/24 05:57:28;;;;;;;19.90;4.53;;;8.40;99.90;;;;;;5094100;28;20028;-51
2023/11/24 05:59:55;;;;;;;17.65;4.05;;;8.40;99.90;;;;;;5094181;28;20035;-56
2023/11/24 06:02:21;;;;;;;10.30;3.88;;;8.40;99.90;;;;;;5075826;28;20028;-54
2023/11/24 06:04:47;;;;;;;18.88;3.47;;;8.40;99.90;;;;;;5094229;28;20024;-55
2023/11/24 06:07:14;;;;;;;19.77;5.55;;;8.40;99.90;;;;;;5094029;28;20304;-51
2023/11/24 06:09:40;;;;;;;19.00;2.92;;;8.60;99.90;;;;;;5094003;28;20390;-53
2023/11/24 06:12:06;;;;;;;25.90;4.20;;;8.60;99.90;;;;;;5093466;28;20024;-55
2023/11/24 06:14:31;;;;;;;15.43;3.47;;;8.70;99.90;;;;;;5093439;28;20024;-50
2023/11/24 06:16:57;;;;;;;24.90;4.70;;;8.70;99.90;;;;;;5093675;28;20081;-54
2023/11/24 06:19:23;;;;;;;17.17;3.53;;;8.70;99.90;;;;;;5093994;28;20032;-49
2023/11/24 06:21:48;;;;;;;22.95;4.43;;;8.60;99.90;;;;;;5075632;28;20028;-49
2023/11/24 06:24:14;;;;;;;18.80;2.90;;;9.50;99.90;;;;;;5093944;28;20039;-54
2023/11/24 06:26:40;;;;;;;19.13;3.63;;;8.50;99.90;;;;;;5093807;28;20024;-53
2023/11/24 06:29:05;;;;;;;18.40;3.20;;;8.50;99.90;;;;;;5093961;28;20046;-49
2023/11/24 06:31:31;;;;;;;15.02;2.85;;;8.40;99.90;;;;;;5075779;28;20046;-51
2023/11/24 06:33:56;;;;;;;19.73;2.83;;;8.40;99.90;;;;;;5075346;28;20023;-52
2023/11/24 06:36:22;;;;;;;16.13;3.22;;;8.40;99.90;;;;;;5075380;28;20125;-53
2023/11/24 06:38:48;;;;;;;10.07;2.88;;;8.40;99.90;;;;;;5093950;28;20376;-54
2023/11/24 06:41:13;;;;;;;11.85;2.45;;;8.40;99.90;;;;;;5093678;28;20064;-53
2023/11/24 06:43:39;;;;;;;13.70;2.63;;;8.40;99.90;;;;;;5093296;28;20028;-52
2023/11/24 06:46:05;;;;;;;13.60;2.85;;;8.40;99.90;;;;;;5093408;28;20028;-53
2023/11/24 06:48:32;;;;;;;14.25;2.85;;;8.40;99.90;;;;;;5093408;28;20024;-52
2023/11/24 06:50:58;;;;;;;16.27;3.92;;;8.40;99.90;;;;;;5093266;28;20026;-54
2023/11/24 06:53:24;;;;;;;14.15;2.70;;;8.40;99.90;;;;;;5092856;28;20478;-53
2023/11/24 06:55:49;;;;;;;8.75;1.90;;;8.40;99.90;;;;;;5093202;28;20021;-54
2023/11/24 06:58:15;;;;;;;13.00;2.47;;;8.40;99.90;;;;;;5093380;28;20024;-53
2023/11/24 07:00:40;;;;;;;12.80;2.55;;;8.40;99.90;;;;;;5093317;28;20106;-53
2023/11/24 07:03:06;;;;;;;11.95;2.35;;;8.30;99.90;;;;;;5092997;28;20170;-56
2023/11/24 07:05:31;;;;;;;14.68;2.22;;;8.30;99.90;;;;;;5093100;28;20024;-56
2023/11/24 07:07:57;;;;;;;11.35;2.13;;;8.30;99.90;;;;;;5093007;28;20463;-53
2023/11/24 07:10:26;;;;;;;8.55;2.20;;;8.30;99.90;;;;;;5092914;28;20024;-51
2023/11/24 07:12:51;;;;;;;18.35;2.63;;;8.20;99.90;;;;;;5092814;28;20012;-54
2023/11/24 07:15:18;;;;;;;12.07;2.42;;;8.30;99.90;;;;;;5074755;28;20020;-54
2023/11/24 07:17:43;;;;;;;11.48;3.25;;;8.20;99.90;;;;;;5092739;28;20027;-54
2023/11/24 07:20:13;;;;;;;14.27;3.45;;;8.20;99.90;;;;;;5092973;28;20028;-51
2023/11/24 07:22:39;;;;;;;19.35;3.40;;;8.20;99.90;;;;;;5092488;28;20503;-54
2023/11/24 07:25:06;;;;;;;8.73;2.08;;;8.20;99.90;;;;;;5092479;28;20102;-51
2023/11/24 07:27:31;;;;;;;7.35;2.50;;;8.20;99.90;;;;;;5091247;28;20030;-53
2023/11/24 07:29:57;;;;;;;8.20;2.53;;;8.20;99.90;;;;;;5092348;28;20020;-51
2023/11/24 07:32:27;;;;;;;16.60;3.47;;;8.20;99.90;;;;;;5092076;28;20026;-55
2023/11/24 07:34:52;;;;;;;5.15;2.33;;;8.20;99.90;;;;;;5074055;28;20020;-54
2023/11/24 07:37:18;;;;;;;8.95;2.63;;;8.30;99.90;;;;;;5092255;28;20509;-52
2023/11/24 07:39:43;;;;;;;5.10;2.20;;;8.30;99.90;;;;;;5074277;28;20016;-56
2023/11/24 07:42:09;;;;;;;12.20;2.83;;;8.40;99.90;;;;;;5092028;28;20024;-57
2023/11/24 07:44:35;;;;;;;14.77;3.25;;;8.40;99.90;;;;;;5092704;28;20028;-51
2023/11/24 07:47:01;;;;;;;11.15;2.75;;;8.40;99.90;;;;;;5073800;28;20112;-51
2023/11/24 07:49:26;;;;;;;11.23;2.90;;;8.50;99.90;;;;;;5092204;28;20475;-50
2023/11/24 07:51:52;;;;;;;7.38;2.60;;;8.50;99.90;;;;;;5091840;28;20024;-53
2023/11/24 07:54:18;;;;;;;6.38;1.98;;;8.60;99.90;;;;;;5092068;28;20073;-53
2023/11/24 07:56:43;;;;;;;14.15;2.35;;;8.50;99.90;;;;;;5091876;28;20028;-54
2023/11/24 07:59:12;;;;;;;6.55;1.88;;;8.60;99.90;;;;;;5092339;28;20060;-50
2023/11/24 08:01:41;;;;;;;10.85;1.90;;;8.60;99.90;;;;;;5073560;28;20016;-52
2023/11/24 08:04:07;;;;;;;7.82;1.90;;;8.60;99.90;;;;;;5091581;28;20028;-54
2023/11/24 08:06:33;;;;;;;11.07;2.47;;;8.60;99.90;;;;;;5091710;28;20106;-51
2023/11/24 08:09:03;;;;;;;8.15;1.90;;;8.50;99.90;;;;;;5092116;28;20169;-54
2023/11/24 08:11:30;;;;;;;15.13;1.90;;;8.50;99.90;;;;;;5091108;28;20526;-51
2023/11/24 08:13:57;;;;;;;11.88;2.35;;;8.50;99.90;;;;;;5090807;28;20127;-56
2023/11/24 08:16:23;;;;;;;5.35;1.70;;;8.50;99.90;;;;;;5091637;28;20024;-57
2023/11/24 08:18:49;;;;;;;6.00;1.77;;;8.40;99.90;;;;;;5073609;28;20028;-57
2023/11/24 08:21:15;;;;;;;12.48;2.65;;;8.40;99.90;;;;;;5091712;28;20024;-53
2023/11/24 08:23:41;;;;;;;7.40;2.15;;;8.50;99.90;;;;;;5091302;28;20030;-55
2023/11/24 08:26:07;;;;;;;7.55;1.65;;;8.60;99.90;;;;;;5091085;28;20115;-54
2023/11/24 08:28:33;;;;;;;8.35;2.10;;;8.60;99.90;;;;;;5073179;28;20182;-55
2023/11/24 08:30:58;;;;;;;10.82;1.58;;;8.60;99.90;;;;;;5091313;28;20799;-52
2023/11/24 08:33:24;;;;;;;9.65;1.85;;;8.60;99.90;;;;;;5091405;28;20198;-52
2023/11/24 08:35:49;;;;;;;4.65;1.70;;;8.70;99.90;;;;;;5091766;28;20055;-54
2023/11/24 08:38:15;;;;;;;4.30;1.73;;;8.70;99.90;;;;;;5090739;28;20404;-52
2023/11/24 08:40:41;;;;;;;7.57;2.50;;;8.80;99.90;;;;;;5091634;28;20557;-49
2023/11/24 08:43:06;;;;;;;8.27;1.90;;;8.70;99.90;;;;;;5091367;28;20099;-50
2023/11/24 08:45:35;;;;;;;12.90;3.33;;;8.80;99.90;;;;;;5073307;28;20020;-50
2023/11/24 08:48:00;;;;;;;8.48;2.03;;;8.90;99.90;;;;;;5091105;28;20568;-56
2023/11/24 08:50:28;;;;;;;8.68;2.10;;;9.40;99.90;;;;;;5091065;28;20024;-52
2023/11/24 08:52:54;;;;;;;19.42;3.25;;;10.10;99.90;;;;;;5091078;28;20024;-53
2023/11/24 08:55:19;;;;;;;10.82;2.03;;;10.10;99.90;;;;;;5090146;28;20560;-51
2023/11/24 08:57:45;;;;;;;10.75;3.03;;;10.10;99.90;;;;;;5090040;28;20044;-53
2023/11/24 09:00:11;;;;;;;10.55;2.10;;;9.90;99.90;;;;;;5090494;28;20085;-51
2023/11/24 09:02:37;;;;;;;10.57;2.70;;;9.70;99.90;;;;;;5091364;28;20031;-48
2023/11/24 09:05:04;;;;;;;12.27;2.70;;;9.50;99.90;;;;;;5073309;28;20028;-51
2023/11/24 09:07:30;;;;;;;8.68;2.00;;;9.30;99.90;;;;;;5091375;28;20035;-48
2023/11/24 09:09:56;;;;;;;9.02;2.15;;;9.20;99.90;;;;;;5091633;28;20032;-50
2023/11/24 09:12:24;;;;;;;10.27;1.67;;;9.10;99.90;;;;;;5091638;28;20145;-48
2023/11/24 09:14:50;;;;;;;7.78;1.98;;;9.00;99.90;;;;;;5073804;28;20032;-50
2023/11/24 09:17:16;;;;;;;7.22;1.88;;;9.00;99.90;;;;;;5091608;28;20035;-50
2023/11/24 09:19:42;;;;;;;7.18;1.83;;;8.90;99.90;;;;;;5091652;28;20514;-49
2023/11/24 09:22:07;;;;;;;10.85;2.03;;;8.80;99.90;;;;;;5091146;28;20028;-53
2023/11/24 09:24:33;;;;;;;4.13;1.77;;;8.70;99.90;;;;;;5091583;28;20028;-50
2023/11/24 09:26:59;;;;;;;8.73;1.77;;;8.70;99.90;;;;;;5091106;28;20027;-49
2023/11/24 09:29:25;;;;;;;14.55;2.08;;;8.70;99.90;;;;;;5091354;28;20491;-53
2023/11/24 09:31:51;;;;;;;8.25;1.80;;;8.70;99.90;;;;;;5090973;28;20016;-49
2023/11/24 09:34:17;;;;;;;12.50;1.75;;;8.70;99.90;;;;;;5091395;28;20445;-52
2023/11/24 09:36:43;;;;;;;11.80;2.17;;;8.70;99.90;;;;;;5071627;28;20345;-56
2023/11/24 09:39:09;;;;;;;8.60;2.10;;;8.80;99.90;;;;;;5091010;28;20043;-54
2023/11/24 09:41:39;;;;;;;8.50;1.83;;;8.80;99.90;;;;;;5091254;28;20020;-52
2023/11/24 09:44:12;;;;;;;9.95;2.17;;;8.70;99.90;;;;;;5072604;28;20494;-54
2023/11/24 09:46:40;;;;;;;9.15;3.22;;;8.70;99.90;;;;;;5090972;28;20039;-56
2023/11/24 09:49:08;;;;;;;9.75;2.25;;;8.70;99.90;;;;;;5090073;28;20529;-54
2023/11/24 09:51:36;;;;;;;11.65;2.67;;;8.70;99.90;;;;;;5093501;28;20020;-52
2023/11/24 09:54:03;;;;;;;5.78;2.42;;;8.60;99.90;;;;;;5094038;28;20016;-49
2023/11/24 09:56:28;;;;;;;6.10;1.40;;;8.60;99.90;;;;;;5094372;28;20402;-49
2023/11/24 09:58:54;;;;;;;5.38;1.92;;;8.40;99.90;;;;;;5094493;28;20029;-53
2023/11/24 10:01:21;;;;;;;9.38;1.92;;;8.20;99.90;;;;;;5094469;28;20423;-53
2023/11/24 10:03:50;;;;;;;14.88;2.47;;;8.10;99.90;;;;;;5093579;28;20023;-53
2023/11/24 10:06:16;;;;;;;6.03;1.48;;;8.10;99.90;;;;;;5093906;28;20028;-47
2023/11/24 10:08:43;;;;;;;15.68;3.03;;;8.10;99.90;;;;;;5094270;28;20024;-51
2023/11/24 10:11:12;;;;;;;12.55;3.20;;;8.00;99.90;;;;;;5075969;28;20024;-48
2023/11/24 10:13:41;;;;;;;9.43;3.17;;;8.10;99.90;;;;;;5075274;28;20040;-54
2023/11/24 10:16:08;;;;;;;10.23;2.38;;;8.10;99.90;;;;;;5093793;28;20048;-57
2023/11/24 10:18:33;;;;;;;10.77;2.00;;;8.10;99.90;;;;;;5075950;28;20168;-56
2023/11/24 10:21:32;;;;;;;10.77;1.75;;;8.10;99.90;;;;;;5092816;28;20020;-57
2023/11/24 10:23:58;;;;;;;6.68;1.52;;;8.10;99.90;;;;;;5092168;28;20028;-55
2023/11/24 10:26:25;;;;;;;9.88;2.10;;;8.10;99.90;;;;;;5093178;28;20487;-57
2023/11/24 10:28:52;;;;;;;8.38;1.75;;;8.20;99.90;;;;;;5093803;28;20027;-55
2023/11/24 10:31:17;;;;;;;12.45;2.80;;;8.30;99.90;;;;;;5093230;28;20107;-59
2023/11/24 10:33:46;;;;;;;12.27;2.40;;;8.30;99.90;;;;;;5075315;28;20463;-55
2023/11/24 10:36:11;;;;;;;10.80;2.92;;;8.30;99.90;;;;;;5093146;28;20040;-59
2023/11/24 10:38:39;;;;;;;10.52;1.95;;;8.40;99.90;;;;;;5094197;28;20070;-57
2023/11/24 10:41:18;;;;;;;8.05;1.25;;;8.30;99.90;;;;;;5093935;28;20020;-58
2023/11/24 10:43:48;;;;;;;3.55;1.20;;;8.20;99.90;;;;;;5092746;28;20028;-54
2023/11/24 10:46:16;;;;;;;3.63;1.23;;;8.30;99.90;;;;;;5095126;28;20069;-59
2023/11/24 10:49:03;;;;;;;4.38;1.13;;;8.10;99.90;;;;;;5092082;28;20387;-58
2023/11/24 10:51:47;;;;;;;5.88;2.17;;;7.90;99.90;;;;;;5093593;28;20024;-60
2023/11/24 10:54:20;;;;;;;4.53;1.92;;;7.70;99.90;;;;;;5092550;28;20020;-60
2023/11/24 10:56:50;;;;;;;167.02;81.10;;;7.60;99.90;;;;;;5092954;28;20395;-59
2023/11/24 10:59:18;;;;;;;58.75;35.47;;;7.60;99.90;;;;;;5093281;28;20554;-60
2023/11/24 11:01:44;;;;;;;68.72;35.58;;;7.60;99.90;;;;;;5093222;28;20028;-59
2023/11/24 11:04:10;;;;;;;8.02;1.92;;;7.70;99.90;;;;;;5075151;28;20533;-60
2023/11/24 11:06:43;;;;;;;3.35;1.60;;;7.80;99.90;;;;;;5092467;28;20444;-60
2023/11/24 11:11:51;;;;;;;6.30;1.83;;;7.90;99.90;;;;;;5093563;28;20024;-56
2023/11/24 11:14:18;;;;;;;3.83;1.52;;;7.90;99.90;;;;;;5093238;28;20026;-60
2023/11/24 11:16:44;;;;;;;7.18;1.35;;;7.80;99.90;;;;;;5074774;28;20024;-60
2023/11/24 11:19:31;;;;;;;3.92;1.30;;;7.80;99.90;;;;;;5093165;28;20028;-56
2023/11/24 11:21:59;;;;;;;5.57;1.55;;;7.80;99.90;;;;;;5074862;28;20487;-62
2023/11/24 11:24:28;;;;;;;4.95;1.42;;;7.80;99.90;;;;;;5092632;28;20032;-62
2023/11/24 11:26:54;;;;;;;3.80;1.52;;;7.90;99.90;;;;;;5074379;28;20379;-63
2023/11/24 11:29:23;;;;;;;5.32;1.45;;;8.00;99.90;;;;;;5074710;28;20070;-63
2023/11/24 11:31:52;;;;;;;5.57;1.48;;;8.00;99.90;;;;;;5092714;28;20024;-61
2023/11/24 11:34:25;;;;;;;5.70;1.58;;;8.10;99.90;;;;;;5092737;28;20021;-54
2023/11/24 11:36:52;;;;;;;4.13;1.33;;;8.10;99.90;;;;;;5092436;28;20043;-51
2023/11/24 11:39:24;;;;;;;4.55;1.52;;;8.20;99.90;;;;;;5074236;28;20031;-62
2023/11/24 11:41:51;;;;;;;10.50;1.83;;;8.30;99.90;;;;;;5091851;28;20031;-56
2023/11/24 11:44:16;;;;;;;9.23;1.88;;;8.40;99.90;;;;;;5092198;28;20039;-47
2023/11/24 11:47:03;;;;;;;11.43;2.13;;;8.40;99.90;;;;;;5092274;28;20028;-54
2023/11/24 11:49:31;;;;;;;5.10;1.58;;;8.40;99.90;;;;;;5073819;28;20028;-49
2023/11/24 11:52:06;;;;;;;9.13;2.00;;;8.40;99.90;;;;;;5091882;28;20024;-54
2023/11/24 11:54:33;;;;;;;8.95;1.80;;;8.50;99.90;;;;;;5092690;28;20020;-51
2023/11/24 11:56:59;;;;;;;5.15;1.90;;;8.50;99.90;;;;;;5092144;28;20498;-53
2023/11/24 11:59:25;;;;;;;4.15;2.15;;;8.60;99.90;;;;;;5092411;28;20108;-53
2023/11/24 12:01:51;;;;;;;4.00;1.40;;;8.70;99.90;;;;;;5091744;28;20085;-49
2023/11/24 12:04:17;;;;;;;6.15;2.25;;;8.60;99.90;;;;;;5092504;28;20028;-50
2023/11/24 12:06:43;;;;;;;17.38;3.13;;;8.50;99.90;;;;;;5092063;28;20028;-52
2023/11/24 12:09:10;;;;;;;8.35;2.03;;;8.60;99.90;;;;;;5092340;28;20016;-53
2023/11/24 12:11:37;;;;;;;51.58;4.57;;;8.60;99.90;;;;;;5092298;28;20051;-54
2023/11/24 12:14:02;;;;;;;5.78;1.13;;;8.60;99.90;;;;;;5091145;28;20470;-49
2023/11/24 12:16:32;;;;;;;11.83;1.30;;;7.90;99.90;;;;;;5091217;28;20032;-52
2023/11/24 12:19:04;;;;;;;6.15;1.70;;;7.90;99.90;;;;;;5092147;28;20020;-51
2023/11/24 12:21:30;;;;;;;8.27;1.45;;;7.50;99.90;;;;;;5091830;28;20024;-53
2023/11/24 12:23:56;;;;;;;2.35;1.25;;;7.20;99.90;;;;;;5091893;28;20406;-52
2023/11/24 12:26:21;;;;;;;0.90;0.70;;;7.20;99.90;;;;;;5091349;28;20028;-53
2023/11/24 12:28:47;;;;;;;5.50;2.38;;;7.10;99.90;;;;;;5091852;28;20024;-55
2023/11/24 12:31:12;;;;;;;4.18;1.83;;;7.10;99.90;;;;;;5091142;28;20390;-51
2023/11/24 12:33:47;;;;;;;0.57;0.57;;;7.20;99.90;;;;;;5091650;28;20095;-52
2023/11/24 12:36:13;;;;;;;2.28;0.80;;;7.20;99.90;;;;;;5091231;28;20039;-52
2023/11/24 12:38:39;;;;;;;3.10;0.77;;;7.20;99.90;;;;;;5092418;28;20020;-54
2023/11/24 12:41:05;;;;;;;2.88;0.85;;;7.40;99.90;;;;;;5073301;28;20082;-54
2023/11/24 12:43:32;;;;;;;4.28;1.23;;;7.40;99.90;;;;;;5091787;28;20027;-50
2023/11/24 12:45:58;;;;;;;4.63;0.80;;;7.50;99.90;;;;;;5091661;28;20016;-49
2023/11/24 12:48:24;;;;;;;4.32;1.48;;;7.50;99.90;;;;;;5073067;28;20085;-48
2023/11/24 12:50:56;;;;;;;3.33;1.50;;;7.50;99.90;;;;;;5076633;28;20026;-48